Wolcottville, Indiana
Current Conditions -  °F | °C
As of 2:55 AM on Saturday 29 Nov 2014 (Local Time) from KANQ Reporting Station
Few Clouds Few Clouds  
Wind Chill: 23°   Ceiling: Unl
Heat Index: 28°   Visibility: 10mi
Dew Point: 14°   Wind: 5mph
Humidity: 55%   Direction: 160°SSE
Pressure: 29.97"   Gusts: NA
Location:  41.53°N, 85.37°W
Report Text: KANQ 290755Z AUTO 16004KT 10SM FEW085 M02/M10 A2997 RMK
Loading
Personal Weather Stations






























Interactive Weather Map New forecast layout! Learn more

10-Day Weather Forecast

Advertisements
Track Severe Weather on mobile